sensor_id;sensor_type;location;lat;lon;timestamp;pressure;altitude;pressure_sealevel;temperature;humidity
40596;BME280;26304;48.794;9.820;2023-02-13T00:02:01;98159.69;;;16.95;51.54
40596;BME280;26304;48.794;9.820;2023-02-13T00:07:44;98164.50;;;16.93;51.87
40596;BME280;26304;48.794;9.820;2023-02-13T00:13:28;98152.00;;;16.90;51.92
40596;BME280;26304;48.794;9.820;2023-02-13T00:19:10;98150.00;;;16.87;51.83
40596;BME280;26304;48.794;9.820;2023-02-13T00:24:52;98158.31;;;16.89;51.21
40596;BME280;26304;48.794;9.820;2023-02-13T00:30:36;98153.22;;;16.84;51.39
40596;BME280;26304;48.794;9.820;2023-02-13T00:36:20;98163.28;;;16.82;51.68
40596;BME280;26304;48.794;9.820;2023-02-13T00:42:03;98150.78;;;16.79;51.95
40596;BME280;26304;48.794;9.820;2023-02-13T00:47:47;98156.03;;;16.79;51.42
40596;BME280;26304;48.794;9.820;2023-02-13T00:53:31;98159.28;;;16.76;51.65
40596;BME280;26304;48.794;9.820;2023-02-13T00:59:13;98160.03;;;16.76;51.25
40596;BME280;26304;48.794;9.820;2023-02-13T01:04:59;98150.91;;;16.74;51.37
40596;BME280;26304;48.794;9.820;2023-02-13T01:10:42;98143.69;;;16.70;51.50
40596;BME280;26304;48.794;9.820;2023-02-13T01:16:26;98139.84;;;16.68;51.73
40596;BME280;26304;48.794;9.820;2023-02-13T01:22:10;98141.69;;;16.67;51.18
40596;BME280;26304;48.794;9.820;2023-02-13T01:27:52;98135.66;;;16.67;51.78
40596;BME280;26304;48.794;9.820;2023-02-13T01:33:35;98131.81;;;16.64;51.71
40596;BME280;26304;48.794;9.820;2023-02-13T01:39:19;98133.97;;;16.62;51.06
40596;BME280;26304;48.794;9.820;2023-02-13T01:45:04;98132.44;;;16.61;51.48
40596;BME280;26304;48.794;9.820;2023-02-13T01:50:50;98132.28;;;16.58;51.49
40596;BME280;26304;48.794;9.820;2023-02-13T01:56:36;98124.75;;;16.56;51.39
40596;BME280;26304;48.794;9.820;2023-02-13T02:02:22;98126.88;;;16.54;51.41
40596;BME280;26304;48.794;9.820;2023-02-13T02:08:07;98122.75;;;16.53;51.45
40596;BME280;26304;48.794;9.820;2023-02-13T02:13:52;98130.13;;;16.51;51.25
40596;BME280;26304;48.794;9.820;2023-02-13T02:19:40;98109.63;;;16.44;51.99
40596;BME280;26304;48.794;9.820;2023-02-13T02:32:11;98105.22;;;18.40;47.44
40596;BME280;26304;48.794;9.820;2023-02-13T02:38:08;98114.06;;;19.05;46.76
40596;BME280;26304;48.794;9.820;2023-02-13T02:44:07;98101.31;;;19.73;45.64
40596;BME280;26304;48.794;9.820;2023-02-13T02:50:04;98110.00;;;20.14;45.02
40596;BME280;26304;48.794;9.820;2023-02-13T02:55:53;98113.25;;;20.23;44.92
40596;BME280;26304;48.794;9.820;2023-02-13T03:01:38;98103.16;;;20.57;44.54
40596;BME280;26304;48.794;9.820;2023-02-13T03:07:40;98096.25;;;21.00;43.70
40596;BME280;26304;48.794;9.820;2023-02-13T03:13:36;98100.66;;;21.12;43.93
40596;BME280;26304;48.794;9.820;2023-02-13T03:19:30;98103.59;;;21.27;43.60
40596;BME280;26304;48.794;9.820;2023-02-13T03:25:40;98114.63;;;21.64;43.34
40596;BME280;26304;48.794;9.820;2023-02-13T03:31:31;98116.03;;;21.97;42.76
40596;BME280;26304;48.794;9.820;2023-02-13T03:37:18;98124.75;;;22.21;42.51
40596;BME280;26304;48.794;9.820;2023-02-13T03:43:23;98126.75;;;22.04;42.64
40596;BME280;26304;48.794;9.820;2023-02-13T03:49:11;98135.19;;;22.10;42.95
40596;BME280;26304;48.794;9.820;2023-02-13T03:55:16;98139.00;;;21.73;43.50
40596;BME280;26304;48.794;9.820;2023-02-13T04:01:23;98140.47;;;21.35;44.45
40596;BME280;26304;48.794;9.820;2023-02-13T04:07:09;98147.34;;;20.89;45.40
40596;BME280;26304;48.794;9.820;2023-02-13T04:13:13;98159.06;;;20.59;45.97
40596;BME280;26304;48.794;9.820;2023-02-13T04:18:59;98159.25;;;20.22;46.67
40596;BME280;26304;48.794;9.820;2023-02-13T04:24:42;98163.75;;;19.93;47.37
40596;BME280;26304;48.794;9.820;2023-02-13T04:30:25;98161.59;;;19.71;47.57
40596;BME280;26304;48.794;9.820;2023-02-13T04:36:09;98158.97;;;19.58;47.49
40596;BME280;26304;48.794;9.820;2023-02-13T04:41:52;98162.19;;;19.92;46.89
40596;BME280;26304;48.794;9.820;2023-02-13T04:47:34;98159.19;;;20.35;46.31
40596;BME280;26304;48.794;9.820;2023-02-13T04:53:18;98156.72;;;20.70;45.20
40596;BME280;26304;48.794;9.820;2023-02-13T04:59:01;98157.47;;;20.86;45.31
40596;BME280;26304;48.794;9.820;2023-02-13T05:04:43;98166.25;;;21.07;44.55
40596;BME280;26304;48.794;9.820;2023-02-13T05:10:27;98163.78;;;20.98;44.67
40596;BME280;26304;48.794;9.820;2023-02-13T05:16:10;98168.97;;;20.34;46.26
40596;BME280;26304;48.794;9.820;2023-02-13T05:21:52;98166.16;;;20.27;46.47
40596;BME280;26304;48.794;9.820;2023-02-13T05:27:53;98170.38;;;20.16;46.67
40596;BME280;26304;48.794;9.820;2023-02-13T05:33:36;98168.78;;;19.99;47.58
40596;BME280;26304;48.794;9.820;2023-02-13T05:39:18;98169.03;;;19.93;47.49
40596;BME280;26304;48.794;9.820;2023-02-13T05:45:03;98164.75;;;19.89;47.60
40596;BME280;26304;48.794;9.820;2023-02-13T05:50:46;98167.53;;;19.80;48.18
40596;BME280;26304;48.794;9.820;2023-02-13T05:56:28;98156.53;;;19.78;48.15
40596;BME280;26304;48.794;9.820;2023-02-13T06:02:12;98168.63;;;19.79;48.42
40596;BME280;26304;48.794;9.820;2023-02-13T06:07:55;98167.19;;;19.69;48.73
40596;BME280;26304;48.794;9.820;2023-02-13T06:13:37;98169.09;;;19.56;49.03
40596;BME280;26304;48.794;9.820;2023-02-13T06:19:22;98168.16;;;19.89;48.21
40596;BME280;26304;48.794;9.820;2023-02-13T06:25:05;98171.56;;;19.90;48.28
40596;BME280;26304;48.794;9.820;2023-02-13T06:30:47;98177.53;;;19.87;48.37
40596;BME280;26304;48.794;9.820;2023-02-13T06:36:31;98184.03;;;19.77;48.77
40596;BME280;26304;48.794;9.820;2023-02-13T06:42:14;98182.69;;;19.83;48.45
40596;BME280;26304;48.794;9.820;2023-02-13T06:47:58;98191.22;;;19.92;48.92
40596;BME280;26304;48.794;9.820;2023-02-13T06:53:42;98198.47;;;20.08;48.51
40596;BME280;26304;48.794;9.820;2023-02-13T06:59:24;98201.53;;;20.10;48.58
40596;BME280;26304;48.794;9.820;2023-02-13T07:05:07;98206.34;;;20.20;48.73
40596;BME280;26304;48.794;9.820;2023-02-13T07:10:51;98208.78;;;20.13;48.53
40596;BME280;26304;48.794;9.820;2023-02-13T07:16:34;98206.22;;;20.17;48.79
40596;BME280;26304;48.794;9.820;2023-02-13T07:22:16;98207.06;;;20.05;49.13
40596;BME280;26304;48.794;9.820;2023-02-13T07:28:03;98205.97;;;20.06;49.27
40596;BME280;26304;48.794;9.820;2023-02-13T07:33:47;98202.59;;;19.93;49.47
40596;BME280;26304;48.794;9.820;2023-02-13T07:39:30;98209.31;;;19.78;49.70
40596;BME280;26304;48.794;9.820;2023-02-13T07:45:14;98212.56;;;19.75;49.58
40596;BME280;26304;48.794;9.820;2023-02-13T07:51:00;98207.66;;;19.61;50.17
40596;BME280;26304;48.794;9.820;2023-02-13T07:56:42;98208.97;;;19.55;50.24
40596;BME280;26304;48.794;9.820;2023-02-13T08:02:26;98213.94;;;19.44;50.33
40596;BME280;26304;48.794;9.820;2023-02-13T08:08:09;98212.28;;;19.39;50.22
40596;BME280;26304;48.794;9.820;2023-02-13T08:13:51;98211.50;;;19.39;49.60
40596;BME280;26304;48.794;9.820;2023-02-13T08:19:35;98213.16;;;19.19;46.67
40596;BME280;26304;48.794;9.820;2023-02-13T08:25:18;98205.91;;;19.03;48.56
40596;BME280;26304;48.794;9.820;2023-02-13T08:31:01;98202.59;;;19.06;47.41
40596;BME280;26304;48.794;9.820;2023-02-13T08:36:45;98207.75;;;19.03;47.79
40596;BME280;26304;48.794;9.820;2023-02-13T08:42:27;98207.84;;;18.94;47.79
40596;BME280;26304;48.794;9.820;2023-02-13T08:48:09;98202.38;;;19.12;47.85
40596;BME280;26304;48.794;9.820;2023-02-13T08:53:53;98209.19;;;19.13;47.47
40596;BME280;26304;48.794;9.820;2023-02-13T08:59:36;98206.31;;;18.93;48.41
40596;BME280;26304;48.794;9.820;2023-02-13T09:05:19;98214.91;;;19.02;47.96
40596;BME280;26304;48.794;9.820;2023-02-13T09:11:03;98206.00;;;19.07;48.13
40596;BME280;26304;48.794;9.820;2023-02-13T09:16:47;98213.59;;;19.09;47.93
40596;BME280;26304;48.794;9.820;2023-02-13T09:22:29;98212.72;;;19.17;48.08
40596;BME280;26304;48.794;9.820;2023-02-13T09:28:13;98211.94;;;19.16;48.06
40596;BME280;26304;48.794;9.820;2023-02-13T09:33:56;98216.66;;;19.11;48.54
40596;BME280;26304;48.794;9.820;2023-02-13T09:39:38;98218.09;;;19.20;48.82
40596;BME280;26304;48.794;9.820;2023-02-13T09:45:22;98209.97;;;19.26;48.29
40596;BME280;26304;48.794;9.820;2023-02-13T09:51:04;98210.09;;;19.29;48.23
40596;BME280;26304;48.794;9.820;2023-02-13T09:56:50;98216.78;;;19.27;48.17
40596;BME280;26304;48.794;9.820;2023-02-13T10:02:52;98220.06;;;19.23;47.85
40596;BME280;26304;48.794;9.820;2023-02-13T10:08:54;98217.53;;;19.27;47.96
40596;BME280;26304;48.794;9.820;2023-02-13T10:14:46;98217.88;;;19.26;47.63
40596;BME280;26304;48.794;9.820;2023-02-13T10:20:36;98223.16;;;19.26;47.70
40596;BME280;26304;48.794;9.820;2023-02-13T10:26:22;98223.81;;;19.35;47.94
40596;BME280;26304;48.794;9.820;2023-02-13T10:32:09;98219.66;;;19.34;47.24
40596;BME280;26304;48.794;9.820;2023-02-13T10:37:57;98214.56;;;19.29;47.65
40596;BME280;26304;48.794;9.820;2023-02-13T10:43:50;98208.78;;;19.35;47.21
40596;BME280;26304;48.794;9.820;2023-02-13T10:49:57;98202.94;;;19.42;47.07
40596;BME280;26304;48.794;9.820;2023-02-13T10:55:57;98199.53;;;19.41;47.05
40596;BME280;26304;48.794;9.820;2023-02-13T11:01:45;98195.69;;;19.39;47.50
40596;BME280;26304;48.794;9.820;2023-02-13T11:07:29;98188.44;;;19.36;47.58
40596;BME280;26304;48.794;9.820;2023-02-13T11:13:18;98180.53;;;19.36;47.26
40596;BME280;26304;48.794;9.820;2023-02-13T11:19:01;98186.56;;;19.36;47.41
40596;BME280;26304;48.794;9.820;2023-02-13T11:24:52;98174.50;;;19.35;47.32
40596;BME280;26304;48.794;9.820;2023-02-13T11:30:38;98182.06;;;19.37;47.52
40596;BME280;26304;48.794;9.820;2023-02-13T11:36:26;98172.94;;;19.34;47.38
40596;BME280;26304;48.794;9.820;2023-02-13T11:42:12;98178.31;;;19.38;47.25
40596;BME280;26304;48.794;9.820;2023-02-13T11:47:57;98182.50;;;19.39;46.98
40596;BME280;26304;48.794;9.820;2023-02-13T11:53:39;98174.69;;;19.42;46.95
40596;BME280;26304;48.794;9.820;2023-02-13T11:59:23;98180.97;;;19.38;46.94
40596;BME280;26304;48.794;9.820;2023-02-13T12:05:16;98170.84;;;19.40;47.16
40596;BME280;26304;48.794;9.820;2023-02-13T12:11:01;98173.47;;;19.40;47.26
40596;BME280;26304;48.794;9.820;2023-02-13T12:16:47;98167.78;;;19.38;47.62
40596;BME280;26304;48.794;9.820;2023-02-13T12:22:39;98168.19;;;19.40;47.16
40596;BME280;26304;48.794;9.820;2023-02-13T12:28:38;98161.31;;;19.23;46.78
40596;BME280;26304;48.794;9.820;2023-02-13T12:41:04;98152.53;;;18.61;44.54
40596;BME280;26304;48.794;9.820;2023-02-13T12:46:55;98163.31;;;18.68;44.98
40596;BME280;26304;48.794;9.820;2023-02-13T12:52:48;98158.91;;;18.26;45.73
40596;BME280;26304;48.794;9.820;2023-02-13T12:58:56;98156.84;;;18.32;44.80
40596;BME280;26304;48.794;9.820;2023-02-13T13:04:49;98159.81;;;18.30;44.74
40596;BME280;26304;48.794;9.820;2023-02-13T13:10:46;98158.16;;;18.26;44.36
40596;BME280;26304;48.794;9.820;2023-02-13T13:16:40;98156.22;;;18.14;44.88
40596;BME280;26304;48.794;9.820;2023-02-13T13:22:31;98156.38;;;18.18;44.03
40596;BME280;26304;48.794;9.820;2023-02-13T13:28:19;98154.06;;;18.16;44.22
40596;BME280;26304;48.794;9.820;2023-02-13T13:34:11;98163.03;;;18.15;44.30
40596;BME280;26304;48.794;9.820;2023-02-13T13:40:00;98164.34;;;17.88;44.56
40596;BME280;26304;48.794;9.820;2023-02-13T13:45:49;98156.84;;;17.48;42.72
40596;BME280;26304;48.794;9.820;2023-02-13T13:51:41;98142.88;;;17.26;42.89
40596;BME280;26304;48.794;9.820;2023-02-13T13:57:24;98153.53;;;17.30;42.75
40596;BME280;26304;48.794;9.820;2023-02-13T14:03:22;98151.28;;;17.40;42.63
40596;BME280;26304;48.794;9.820;2023-02-13T14:09:48;98145.97;;;17.28;42.59
40596;BME280;26304;48.794;9.820;2023-02-13T14:15:51;98141.47;;;17.29;41.69
40596;BME280;26304;48.794;9.820;2023-02-13T14:21:35;98138.06;;;17.79;42.10
40596;BME280;26304;48.794;9.820;2023-02-13T14:27:21;98138.38;;;18.20;41.87
40596;BME280;26304;48.794;9.820;2023-02-13T14:33:06;98139.75;;;18.38;42.63
40596;BME280;26304;48.794;9.820;2023-02-13T14:38:54;98138.25;;;18.49;42.83
40596;BME280;26304;48.794;9.820;2023-02-13T14:44:44;98145.06;;;18.63;43.10
40596;BME280;26304;48.794;9.820;2023-02-13T14:50:31;98143.13;;;18.72;43.25
40596;BME280;26304;48.794;9.820;2023-02-13T14:56:18;98143.00;;;18.81;43.20
40596;BME280;26304;48.794;9.820;2023-02-13T15:02:14;98138.34;;;18.86;43.12
40596;BME280;26304;48.794;9.820;2023-02-13T15:08:04;98146.69;;;18.88;43.57
40596;BME280;26304;48.794;9.820;2023-02-13T15:13:48;98139.44;;;18.98;44.04
40596;BME280;26304;48.794;9.820;2023-02-13T15:19:33;98130.75;;;18.85;44.61
40596;BME280;26304;48.794;9.820;2023-02-13T15:25:22;98129.63;;;18.74;44.96
40596;BME280;26304;48.794;9.820;2023-02-13T15:31:19;98132.59;;;18.72;45.54
40596;BME280;26304;48.794;9.820;2023-02-13T15:37:04;98131.72;;;18.80;44.92
40596;BME280;26304;48.794;9.820;2023-02-13T15:42:47;98134.34;;;18.80;45.34
40596;BME280;26304;48.794;9.820;2023-02-13T15:48:31;98125.34;;;18.81;45.58
40596;BME280;26304;48.794;9.820;2023-02-13T15:54:31;98136.09;;;18.76;45.81
40596;BME280;26304;48.794;9.820;2023-02-13T16:00:20;98132.59;;;18.72;46.08
40596;BME280;26304;48.794;9.820;2023-02-13T16:06:06;98131.69;;;18.68;46.34
40596;BME280;26304;48.794;9.820;2023-02-13T16:11:50;98130.81;;;18.64;46.05
40596;BME280;26304;48.794;9.820;2023-02-13T16:17:35;98130.56;;;18.57;46.68
40596;BME280;26304;48.794;9.820;2023-02-13T16:23:19;98123.78;;;18.56;46.45
40596;BME280;26304;48.794;9.820;2023-02-13T16:29:07;98125.41;;;18.48;46.86
40596;BME280;26304;48.794;9.820;2023-02-13T16:34:51;98128.75;;;18.24;46.88
40596;BME280;26304;48.794;9.820;2023-02-13T16:40:37;98140.56;;;18.51;47.60
40596;BME280;26304;48.794;9.820;2023-02-13T16:46:28;98138.69;;;18.51;47.78
40596;BME280;26304;48.794;9.820;2023-02-13T16:52:16;98141.31;;;18.51;48.12
40596;BME280;26304;48.794;9.820;2023-02-13T16:58:01;98145.19;;;18.54;48.18
40596;BME280;26304;48.794;9.820;2023-02-13T17:03:46;98138.25;;;18.62;47.70
40596;BME280;26304;48.794;9.820;2023-02-13T17:09:28;98134.44;;;18.59;48.16
40596;BME280;26304;48.794;9.820;2023-02-13T17:15:12;98134.75;;;18.58;48.12
40596;BME280;26304;48.794;9.820;2023-02-13T17:20:57;98134.09;;;18.61;47.81
40596;BME280;26304;48.794;9.820;2023-02-13T17:26:39;98129.50;;;18.58;48.21
40596;BME280;26304;48.794;9.820;2023-02-13T17:32:24;98139.25;;;18.57;48.88
40596;BME280;26304;48.794;9.820;2023-02-13T17:38:09;98138.25;;;18.62;48.62
40596;BME280;26304;48.794;9.820;2023-02-13T17:43:51;98134.97;;;18.52;48.67
40596;BME280;26304;48.794;9.820;2023-02-13T17:49:34;98140.91;;;18.62;48.25
40596;BME280;26304;48.794;9.820;2023-02-13T17:55:19;98135.41;;;18.55;48.68
40596;BME280;26304;48.794;9.820;2023-02-13T18:01:03;98144.63;;;18.61;48.22
40596;BME280;26304;48.794;9.820;2023-02-13T18:06:50;98143.19;;;18.51;48.44
40596;BME280;26304;48.794;9.820;2023-02-13T18:12:37;98149.00;;;18.57;47.96
40596;BME280;26304;48.794;9.820;2023-02-13T18:18:21;98150.34;;;18.63;48.16
40596;BME280;26304;48.794;9.820;2023-02-13T18:24:06;98161.44;;;18.68;48.88
40596;BME280;26304;48.794;9.820;2023-02-13T18:29:53;98158.94;;;18.72;49.43
40596;BME280;26304;48.794;9.820;2023-02-13T18:35:36;98161.84;;;18.92;49.95
40596;BME280;26304;48.794;9.820;2023-02-13T18:41:19;98156.28;;;18.72;51.46
40596;BME280;26304;48.794;9.820;2023-02-13T18:47:03;98170.34;;;18.76;51.00
40596;BME280;26304;48.794;9.820;2023-02-13T18:52:45;98169.56;;;18.76;50.26
40596;BME280;26304;48.794;9.820;2023-02-13T18:58:28;98170.16;;;18.81;51.01
40596;BME280;26304;48.794;9.820;2023-02-13T19:04:13;98167.50;;;18.81;51.18
40596;BME280;26304;48.794;9.820;2023-02-13T19:09:55;98157.31;;;18.92;50.84
40596;BME280;26304;48.794;9.820;2023-02-13T19:15:37;98157.16;;;18.76;51.00
40596;BME280;26304;48.794;9.820;2023-02-13T19:21:23;98163.50;;;18.63;50.80
40596;BME280;26304;48.794;9.820;2023-02-13T19:27:06;98159.34;;;18.62;50.55
40596;BME280;26304;48.794;9.820;2023-02-13T19:32:49;98147.50;;;18.56;49.25
40596;BME280;26304;48.794;9.820;2023-02-13T19:38:32;98143.91;;;18.27;47.87
40596;BME280;26304;48.794;9.820;2023-02-13T19:44:15;98146.56;;;17.55;43.28
40596;BME280;26304;48.794;9.820;2023-02-13T19:49:57;98142.72;;;17.22;42.18
40596;BME280;26304;48.794;9.820;2023-02-13T19:55:42;98145.19;;;16.98;41.49
40596;BME280;26304;48.794;9.820;2023-02-13T20:01:26;98145.75;;;17.03;41.79
40596;BME280;26304;48.794;9.820;2023-02-13T20:07:09;98147.94;;;16.93;41.06
40596;BME280;26304;48.794;9.820;2023-02-13T20:12:53;98155.84;;;16.75;40.58
40596;BME280;26304;48.794;9.820;2023-02-13T20:18:36;98162.13;;;16.53;40.50
40596;BME280;26304;48.794;9.820;2023-02-13T20:24:20;98160.44;;;16.48;41.10
40596;BME280;26304;48.794;9.820;2023-02-13T20:30:06;98152.03;;;16.64;41.42
40596;BME280;26304;48.794;9.820;2023-02-13T20:35:48;98151.53;;;16.88;41.68
40596;BME280;26304;48.794;9.820;2023-02-13T20:41:33;98138.69;;;16.95;42.64
40596;BME280;26304;48.794;9.820;2023-02-13T20:47:18;98133.88;;;16.97;42.40
40596;BME280;26304;48.794;9.820;2023-02-13T20:53:03;98128.03;;;16.92;43.34
40596;BME280;26304;48.794;9.820;2023-02-13T20:58:47;98131.44;;;16.92;43.46
40596;BME280;26304;48.794;9.820;2023-02-13T21:04:32;98124.63;;;16.91;44.34
40596;BME280;26304;48.794;9.820;2023-02-13T21:10:15;98121.56;;;16.89;44.61
40596;BME280;26304;48.794;9.820;2023-02-13T21:16:10;98136.25;;;16.90;44.34
40596;BME280;26304;48.794;9.820;2023-02-13T21:21:54;98130.34;;;16.84;44.71
40596;BME280;26304;48.794;9.820;2023-02-13T21:27:51;98119.41;;;16.82;45.17
40596;BME280;26304;48.794;9.820;2023-02-13T21:33:34;98123.28;;;16.76;45.02
40596;BME280;26304;48.794;9.820;2023-02-13T21:39:17;98112.00;;;16.76;44.99
40596;BME280;26304;48.794;9.820;2023-02-13T21:45:00;98116.66;;;16.70;46.07
40596;BME280;26304;48.794;9.820;2023-02-13T21:50:42;98111.72;;;16.68;46.08
40596;BME280;26304;48.794;9.820;2023-02-13T21:56:28;98109.41;;;16.67;45.60
40596;BME280;26304;48.794;9.820;2023-02-13T22:02:11;98109.56;;;16.62;46.21
40596;BME280;26304;48.794;9.820;2023-02-13T22:07:54;98094.75;;;16.57;46.60
40596;BME280;26304;48.794;9.820;2023-02-13T22:13:54;98102.19;;;16.55;46.10
40596;BME280;26304;48.794;9.820;2023-02-13T22:19:37;98096.19;;;16.55;46.31
40596;BME280;26304;48.794;9.820;2023-02-13T22:25:20;98100.50;;;16.50;46.86
40596;BME280;26304;48.794;9.820;2023-02-13T22:31:08;98099.56;;;16.46;46.47
40596;BME280;26304;48.794;9.820;2023-02-13T22:36:51;98113.00;;;16.45;46.90
40596;BME280;26304;48.794;9.820;2023-02-13T22:42:33;98109.94;;;16.43;46.23
40596;BME280;26304;48.794;9.820;2023-02-13T22:48:17;98107.94;;;16.40;46.69
40596;BME280;26304;48.794;9.820;2023-02-13T22:54:00;98113.50;;;16.38;46.65
40596;BME280;26304;48.794;9.820;2023-02-13T22:59:43;98107.78;;;16.36;46.84
40596;BME280;26304;48.794;9.820;2023-02-13T23:05:27;98105.47;;;16.34;46.93
40596;BME280;26304;48.794;9.820;2023-02-13T23:11:12;98099.00;;;16.32;46.96
40596;BME280;26304;48.794;9.820;2023-02-13T23:17:12;98079.41;;;16.29;47.28
40596;BME280;26304;48.794;9.820;2023-02-13T23:23:14;98080.47;;;16.28;46.93
40596;BME280;26304;48.794;9.820;2023-02-13T23:28:56;98072.91;;;16.27;47.27
40596;BME280;26304;48.794;9.820;2023-02-13T23:34:39;98078.47;;;16.25;46.91
40596;BME280;26304;48.794;9.820;2023-02-13T23:40:23;98064.16;;;16.23;46.97
40596;BME280;26304;48.794;9.820;2023-02-13T23:46:06;98071.53;;;16.21;47.19
40596;BME280;26304;48.794;9.820;2023-02-13T23:51:48;98069.22;;;16.19;46.98
40596;BME280;26304;48.794;9.820;2023-02-13T23:57:32;98076.66;;;16.17;47.02
